Terminal Aerodrome Forecast
Issued by NWS

Home | Current Version | Previous Version | Text Only | Print | Product List | Glossary On
Versions: 1 2 3 4 5 6 7 8 9 10 11 12 13 14 15 16 17 18 19 20 21 22 23 24 25 26 27 28 29 30 31 32 33
000
FTUS43 KAPX 172320
TAFAPN
TAF
KAPN 172320Z 1800/1824 31006KT 3SM -SN SCT015 OVC025
     FM180300 32005KT P6SM -SHSN OVC030
     FM181400 34007KT P6SM OVC035=

USA.gov is the U.S. government's official web portal to all federal, state and local government web resources and services.